createdAt,value
2018-06-12T00:00:29.270Z,99.99
2018-06-12T00:01:29.283Z,99.99
2018-06-12T00:02:29.527Z,99.99
2018-06-12T00:03:29.559Z,99.99
2018-06-12T00:04:29.537Z,99.99
2018-06-12T00:05:29.294Z,99.99
2018-06-12T00:06:29.575Z,99.99
2018-06-12T00:07:29.543Z,99.99
2018-06-12T00:08:29.553Z,99.99
2018-06-12T00:09:29.280Z,99.99
2018-06-12T00:10:29.547Z,99.99
2018-06-12T00:11:29.607Z,99.99
2018-06-12T00:12:29.564Z,99.99
2018-06-12T00:13:29.546Z,99.99
2018-06-12T00:14:29.563Z,99.99
2018-06-12T00:15:29.551Z,99.99
2018-06-12T00:16:29.645Z,99.99
2018-06-12T00:17:29.544Z,99.99
2018-06-12T00:18:29.555Z,99.99
2018-06-12T00:19:29.564Z,99.99
2018-06-12T00:20:29.563Z,99.99
2018-06-12T00:21:29.293Z,99.99
2018-06-12T00:22:29.294Z,99.99
2018-06-12T00:23:29.553Z,99.99
2018-06-12T00:24:29.556Z,99.99
2018-06-12T00:25:29.560Z,99.99
2018-06-12T00:26:29.637Z,99.99
2018-06-12T00:27:29.301Z,99.99
2018-06-12T00:28:29.578Z,99.99
2018-06-12T00:29:29.563Z,99.99
2018-06-12T00:30:29.566Z,99.99
2018-06-12T00:31:29.564Z,99.99
2018-06-12T00:32:29.561Z,99.99
2018-06-12T00:33:29.569Z,99.99
2018-06-12T00:34:29.311Z,99.99
2018-06-12T00:35:29.570Z,99.99
2018-06-12T00:36:29.574Z,99.99
2018-06-12T00:37:29.570Z,99.99
2018-06-12T00:38:29.313Z,99.99
2018-06-12T00:39:29.577Z,99.99
2018-06-12T00:40:29.575Z,99.99
2018-06-12T00:41:29.649Z,99.99
2018-06-12T00:42:29.579Z,99.99
2018-06-12T00:43:29.585Z,99.99
2018-06-12T00:44:29.585Z,99.99
2018-06-12T00:45:29.587Z,99.99
2018-06-12T00:46:29.633Z,99.99
2018-06-12T00:47:29.595Z,99.99
2018-06-12T00:48:29.593Z,99.99
2018-06-12T00:49:29.590Z,99.99
2018-06-12T00:50:29.604Z,99.99
2018-06-12T00:51:29.593Z,99.99
2018-06-12T00:52:29.601Z,99.99
2018-06-12T00:53:29.596Z,99.99
2018-06-12T00:54:29.350Z,99.99
2018-06-12T00:55:29.604Z,99.99
2018-06-12T00:56:29.626Z,99.99
2018-06-12T00:57:29.350Z,99.99
2018-06-12T00:58:29.613Z,99.99
2018-06-12T00:59:29.612Z,99.99
2018-06-12T01:00:29.359Z,99.99
2018-06-12T01:01:29.647Z,99.99
2018-06-12T01:02:29.617Z,99.99
2018-06-12T01:03:29.632Z,99.99
2018-06-12T01:04:29.356Z,99.99
2018-06-12T01:05:29.357Z,99.99
2018-06-12T01:06:29.365Z,99.99
2018-06-12T01:07:29.636Z,99.99
2018-06-12T01:08:29.648Z,99.99
2018-06-12T01:09:29.482Z,99.99
2018-06-12T01:10:29.644Z,99.99
2018-06-12T01:11:29.681Z,99.99
2018-06-12T01:12:29.685Z,99.99
2018-06-12T01:13:29.645Z,99.99
2018-06-12T01:14:29.644Z,99.99
2018-06-12T01:15:29.399Z,99.99
2018-06-12T01:16:29.650Z,99.99
2018-06-12T01:17:29.382Z,99.99
2018-06-12T01:18:29.389Z,99.99
2018-06-12T01:19:29.645Z,99.99
2018-06-12T01:20:29.644Z,99.99
2018-06-12T01:21:29.650Z,99.99
2018-06-12T01:22:29.648Z,99.99
2018-06-12T01:23:29.396Z,99.99
2018-06-12T01:24:29.396Z,99.99
2018-06-12T01:25:29.707Z,99.99
2018-06-12T01:26:29.654Z,99.99
2018-06-12T01:27:29.666Z,99.99
2018-06-12T01:28:29.659Z,99.99
2018-06-12T01:29:29.656Z,99.99
2018-06-12T01:30:29.664Z,99.99
2018-06-12T01:31:29.724Z,99.99
2018-06-12T01:32:29.461Z,99.99
2018-06-12T01:33:29.673Z,99.99
2018-06-12T01:34:29.669Z,99.99
2018-06-12T01:35:29.681Z,99.99
2018-06-12T01:36:29.416Z,99.99
2018-06-12T01:37:29.686Z,99.99
2018-06-12T01:38:29.680Z,99.99
2018-06-12T01:39:29.422Z,99.99
2018-06-12T01:40:29.705Z,99.99
2018-06-12T01:41:29.740Z,99.99
2018-06-12T01:42:29.433Z,99.99
2018-06-12T01:43:29.434Z,99.99
2018-06-12T01:44:29.699Z,99.99
2018-06-12T01:45:29.702Z,99.99
2018-06-12T01:46:29.771Z,99.99
2018-06-12T01:47:29.447Z,99.99
2018-06-12T01:48:29.700Z,99.99
2018-06-12T01:49:29.445Z,99.99
2018-06-12T01:50:29.699Z,99.99
2018-06-12T01:51:29.834Z,99.99
2018-06-12T01:52:29.716Z,99.99
2018-06-12T01:53:29.704Z,99.99
2018-06-12T01:54:29.727Z,99.99
2018-06-12T01:55:29.462Z,99.99
2018-06-12T01:56:29.796Z,99.99
2018-06-12T01:57:29.772Z,99.99
2018-06-12T01:58:29.723Z,99.99
2018-06-12T01:59:29.749Z,99.99
2018-06-12T02:00:29.464Z,99.99
2018-06-12T02:01:29.467Z,99.99
2018-06-12T02:02:29.730Z,99.99
2018-06-12T02:03:29.467Z,99.99
2018-06-12T02:04:29.468Z,99.99
2018-06-12T02:05:29.730Z,99.99
2018-06-12T02:06:29.481Z,99.99
2018-06-12T02:07:29.741Z,99.99
2018-06-12T02:08:29.750Z,99.99
2018-06-12T02:09:29.479Z,99.99
2018-06-12T02:10:29.747Z,99.99
2018-06-12T02:11:29.480Z,99.99
2018-06-12T02:12:30.762Z,99.99
2018-06-12T02:13:29.751Z,99.99
2018-06-12T02:14:29.490Z,99.99
2018-06-12T02:15:29.749Z,99.99
2018-06-12T02:16:29.840Z,99.99
2018-06-12T02:17:29.493Z,99.99
2018-06-12T02:18:29.501Z,99.99
2018-06-12T02:19:29.504Z,99.99
2018-06-12T02:20:29.768Z,99.99
2018-06-12T02:21:29.505Z,99.99
2018-06-12T02:22:29.508Z,99.99
2018-06-12T02:23:29.510Z,99.99
2018-06-12T02:24:29.764Z,99.99
2018-06-12T02:25:29.511Z,99.99
2018-06-12T02:26:29.812Z,99.99
2018-06-12T02:27:29.778Z,99.99
2018-06-12T02:28:29.518Z,99.99
2018-06-12T02:29:29.785Z,99.99
2018-06-12T02:30:29.798Z,99.99
2018-06-12T02:31:29.530Z,99.99
2018-06-12T02:32:29.783Z,99.99
2018-06-12T02:33:29.796Z,99.99
2018-06-12T02:34:29.790Z,99.99
2018-06-12T02:35:29.778Z,99.99
2018-06-12T02:36:29.625Z,99.99
2018-06-12T02:37:29.798Z,99.99
2018-06-12T02:38:29.816Z,99.99
2018-06-12T02:39:29.797Z,99.99
2018-06-12T02:40:29.811Z,99.99
2018-06-12T02:41:29.844Z,99.99
2018-06-12T02:42:30.428Z,99.99
2018-06-12T02:43:29.562Z,99.99
2018-06-12T02:44:29.933Z,99.99
2018-06-12T02:45:29.811Z,99.99
2018-06-12T02:46:29.553Z,99.99
2018-06-12T02:47:29.548Z,99.99
2018-06-12T02:48:29.599Z,99.99
2018-06-12T02:49:29.824Z,99.99
2018-06-12T02:50:29.833Z,99.99
2018-06-12T02:51:29.889Z,99.99
2018-06-12T02:52:29.563Z,99.99
2018-06-12T02:53:29.843Z,99.99
2018-06-12T02:54:29.573Z,99.99
2018-06-12T02:55:29.824Z,99.99
2018-06-12T02:56:29.910Z,99.99
2018-06-12T02:57:29.838Z,99.99
2018-06-12T02:58:29.838Z,99.99
2018-06-12T02:59:29.825Z,99.99
2018-06-12T03:00:29.842Z,99.99
2018-06-12T03:01:29.573Z,99.99
2018-06-12T03:02:29.848Z,99.99
2018-06-12T03:03:29.842Z,99.99
2018-06-12T03:04:29.588Z,99.99
2018-06-12T03:05:29.857Z,99.99
2018-06-12T03:06:29.841Z,99.99
2018-06-12T03:07:29.608Z,99.99
2018-06-12T03:08:29.883Z,99.99
2018-06-12T03:09:29.603Z,99.99
2018-06-12T03:10:29.846Z,99.99
2018-06-12T03:11:29.848Z,99.99
2018-06-12T03:12:29.604Z,99.99
2018-06-12T03:13:29.616Z,99.99
2018-06-12T03:14:29.856Z,99.99
2018-06-12T03:15:29.873Z,99.99
2018-06-12T03:16:29.601Z,99.99
2018-06-12T03:17:29.869Z,99.99
2018-06-12T03:18:29.923Z,99.99
2018-06-12T03:19:29.895Z,99.99
2018-06-12T03:20:29.867Z,99.99
2018-06-12T03:21:29.913Z,99.99
2018-06-12T03:22:29.864Z,99.99
2018-06-12T03:23:29.875Z,99.99
2018-06-12T03:24:29.867Z,99.99
2018-06-12T03:25:29.875Z,99.99
2018-06-12T03:26:29.955Z,99.99
2018-06-12T03:27:29.881Z,99.99
2018-06-12T03:28:29.636Z,99.99
2018-06-12T03:29:29.888Z,99.99
2018-06-12T03:30:29.886Z,99.99
2018-06-12T03:31:29.908Z,99.99
2018-06-12T03:32:29.627Z,99.99
2018-06-12T03:33:29.912Z,99.99
2018-06-12T03:34:29.914Z,99.99
2018-06-12T03:35:29.649Z,99.99
2018-06-12T03:36:29.897Z,99.99
2018-06-12T03:37:29.900Z,99.99
2018-06-12T03:38:29.901Z,99.99
2018-06-12T03:39:29.646Z,99.99
2018-06-12T03:40:29.650Z,99.99
2018-06-12T03:41:29.917Z,99.99
2018-06-12T03:42:29.644Z,99.99
2018-06-12T03:43:29.920Z,99.99
2018-06-12T03:44:29.905Z,99.99
2018-06-12T03:45:29.922Z,99.99
2018-06-12T03:46:29.927Z,99.99
2018-06-12T03:47:29.942Z,99.99
2018-06-12T03:48:29.933Z,99.99
2018-06-12T03:49:29.927Z,99.99
2018-06-12T03:50:29.916Z,99.99
2018-06-12T03:51:30.007Z,99.99
2018-06-12T03:52:29.662Z,99.99
2018-06-12T03:53:29.928Z,99.99
2018-06-12T03:54:29.666Z,99.99
2018-06-12T03:55:29.669Z,99.99
2018-06-12T03:56:29.929Z,99.99
2018-06-12T03:57:29.683Z,99.99
2018-06-12T03:58:29.734Z,99.99
2018-06-12T03:59:29.936Z,99.99
2018-06-12T04:00:29.689Z,99.99
2018-06-12T04:01:29.790Z,99.99
2018-06-12T04:02:29.694Z,99.99
2018-06-12T04:03:29.695Z,99.99
2018-06-12T04:04:29.946Z,99.99
2018-06-12T04:05:29.944Z,99.99
2018-06-12T04:06:29.963Z,99.99
2018-06-12T04:07:29.955Z,99.99
2018-06-12T04:08:29.979Z,99.99
2018-06-12T04:09:29.696Z,99.99
2018-06-12T04:10:29.961Z,99.99
2018-06-12T04:11:29.959Z,99.99
2018-06-12T04:12:29.966Z,99.99
2018-06-12T04:13:29.717Z,99.99
2018-06-12T04:14:29.706Z,99.99
2018-06-12T04:15:29.971Z,99.99
2018-06-12T04:16:29.780Z,99.99
2018-06-12T04:17:29.974Z,99.99
2018-06-12T04:18:29.988Z,99.99
2018-06-12T04:19:29.981Z,99.99
2018-06-12T04:20:29.768Z,99.99
2018-06-12T04:21:29.717Z,99.99
2018-06-12T04:22:29.722Z,99.99
2018-06-12T04:23:30.005Z,99.99
2018-06-12T04:24:29.739Z,99.99
2018-06-12T04:25:29.986Z,99.99
2018-06-12T04:26:29.729Z,99.99
2018-06-12T04:27:29.994Z,99.99
2018-06-12T04:28:30.054Z,99.99
2018-06-12T04:29:29.741Z,99.99
2018-06-12T04:30:30.016Z,99.99
2018-06-12T04:31:29.777Z,99.99
2018-06-12T04:32:30.031Z,99.99
2018-06-12T04:33:29.757Z,99.99
2018-06-12T04:34:29.744Z,99.99
2018-06-12T04:35:30.008Z,99.99
2018-06-12T04:36:30.003Z,99.99
2018-06-12T04:37:29.762Z,99.99
2018-06-12T04:38:29.776Z,99.99
2018-06-12T04:39:30.018Z,99.99
2018-06-12T04:40:30.018Z,99.99
2018-06-12T04:41:29.840Z,99.99
2018-06-12T04:42:29.755Z,99.99
2018-06-12T04:43:30.823Z,99.99
2018-06-12T04:44:30.034Z,99.99
2018-06-12T04:45:30.043Z,99.99
2018-06-12T04:46:30.032Z,99.99
2018-06-12T04:47:29.768Z,99.99
2018-06-12T04:48:30.047Z,99.99
2018-06-12T04:49:29.784Z,99.99
2018-06-12T04:50:30.033Z,99.99
2018-06-12T04:51:29.884Z,99.99
2018-06-12T04:52:30.042Z,99.99
2018-06-12T04:53:30.051Z,97.72
2018-06-12T04:54:30.039Z,96.94
2018-06-12T04:55:30.049Z,96.22
2018-06-12T04:56:29.793Z,95.36
2018-06-12T04:57:30.050Z,94.1
2018-06-12T04:58:30.075Z,92.46
2018-06-12T04:59:30.065Z,93.33
2018-06-12T05:00:29.804Z,92.5
2018-06-12T05:01:29.814Z,91.44
2018-06-12T05:02:30.067Z,90.77
2018-06-12T05:03:29.827Z,89.07
2018-06-12T05:04:30.083Z,88.11
2018-06-12T05:05:30.078Z,87.44
2018-06-12T05:06:29.835Z,87.09
2018-06-12T05:07:30.085Z,86.86
2018-06-12T05:08:30.098Z,87.63
2018-06-12T05:09:29.831Z,88.02
2018-06-12T05:10:30.142Z,87.92
2018-06-12T05:11:30.161Z,88.69
2018-06-12T05:12:30.100Z,89.27
2018-06-12T05:13:29.857Z,88.4
2018-06-12T05:14:29.855Z,89.51
2018-06-12T05:15:30.126Z,90.77
2018-06-12T05:16:30.121Z,90.87
2018-06-12T05:17:29.870Z,90.77
2018-06-12T05:18:30.155Z,91.54
2018-06-12T05:19:30.132Z,92.02
2018-06-12T05:20:30.147Z,92.12
2018-06-12T05:21:30.140Z,92.85
2018-06-12T05:22:30.140Z,93.23
2018-06-12T05:23:30.145Z,93.62
2018-06-12T05:24:29.887Z,94.2
2018-06-12T05:25:30.252Z,95.11
2018-06-12T05:26:30.157Z,95.21
2018-06-12T05:27:30.157Z,95.5
2018-06-12T05:28:30.157Z,96.17
2018-06-12T05:29:30.181Z,95.98
2018-06-12T05:30:30.175Z,95.31
2018-06-12T05:31:30.176Z,95.11
2018-06-12T05:32:29.919Z,94.92
2018-06-12T05:33:29.939Z,94.24
2018-06-12T05:34:30.193Z,93.43
2018-06-12T05:35:30.227Z,93.33
2018-06-12T05:36:30.192Z,93.71
2018-06-12T05:37:30.208Z,93.52
2018-06-12T05:38:30.204Z,93.13
2018-06-12T05:39:29.941Z,92.94
2018-06-12T05:40:30.199Z,92.12
2018-06-12T05:41:30.198Z,91.25
2018-06-12T05:42:29.952Z,91.4
2018-06-12T05:43:29.953Z,91.44
2018-06-12T05:44:30.229Z,90.29
2018-06-12T05:45:30.219Z,90.67
2018-06-12T05:46:29.971Z,90.38
2018-06-12T05:47:30.220Z,89.9
2018-06-12T05:48:29.981Z,89.61
2018-06-12T05:49:29.972Z,89.32
2018-06-12T05:50:30.226Z,89.56
2018-06-12T05:51:30.232Z,89.03
2018-06-12T05:52:29.980Z,89.81
2018-06-12T05:53:30.248Z,89.81
2018-06-12T05:54:29.986Z,90.38
2018-06-12T05:55:30.251Z,90.96
2018-06-12T05:56:30.064Z,91.06
2018-06-12T05:57:30.255Z,90.87
2018-06-12T05:58:30.009Z,91.44
2018-06-12T05:59:30.263Z,92.02
2018-06-12T06:00:30.265Z,91.74
2018-06-12T06:01:30.277Z,92.41
2018-06-12T06:02:30.019Z,92.32
2018-06-12T06:03:30.279Z,91.83
2018-06-12T06:04:30.284Z,91.64
2018-06-12T06:05:30.282Z,92.32
2018-06-12T06:06:30.287Z,92.36
2018-06-12T06:07:30.028Z,93.23
2018-06-12T06:08:30.307Z,94.1
2018-06-12T06:09:30.033Z,93.91
2018-06-12T06:10:30.366Z,94.29
2018-06-12T06:11:30.124Z,93.13
2018-06-12T06:12:30.041Z,93.18
2018-06-12T06:13:30.331Z,92.32
2018-06-12T06:14:30.327Z,91.64
2018-06-12T06:15:30.064Z,90.23
2018-06-12T06:16:30.331Z,88.4
2018-06-12T06:17:30.070Z,88.59
2018-06-12T06:18:30.347Z,88.59
2018-06-12T06:19:30.331Z,89.65
2018-06-12T06:20:30.342Z,89.56
2018-06-12T06:21:30.081Z,87.73
2018-06-12T06:22:30.486Z,88.5
2018-06-12T06:23:30.358Z,88.98
2018-06-12T06:24:30.089Z,90.33
2018-06-12T06:25:30.350Z,89.85
2018-06-12T06:26:30.446Z,89.37
2018-06-12T06:27:30.367Z,88.89
2018-06-12T06:28:30.376Z,89.47
2018-06-12T06:29:30.363Z,89.65
2018-06-12T06:30:30.373Z,91.11
2018-06-12T06:31:30.372Z,92.46
2018-06-12T06:32:30.119Z,90.72
2018-06-12T06:33:30.394Z,90.53
2018-06-12T06:34:30.121Z,90.72
2018-06-12T06:35:30.413Z,91.83
2018-06-12T06:36:30.394Z,93.08
2018-06-12T06:37:30.404Z,93.37
2018-06-12T06:38:30.432Z,94.63
2018-06-12T06:39:30.408Z,94
2018-06-12T06:40:30.409Z,94.39
2018-06-12T06:41:30.494Z,95.16
2018-06-12T06:42:30.426Z,95.74
2018-06-12T06:43:30.188Z,98.82
2018-06-12T06:44:30.429Z,99.02
2018-06-12T06:45:30.435Z,98.92
2018-06-12T06:46:30.440Z,99.99
2018-06-12T06:47:30.439Z,99.88
2018-06-12T06:48:30.454Z,99.99
2018-06-12T06:49:30.444Z,99.11
2018-06-12T06:50:30.445Z,99.4
2018-06-12T06:51:30.457Z,98.25
2018-06-12T06:52:30.447Z,96.51
2018-06-12T06:53:30.485Z,97.19
2018-06-12T06:54:30.453Z,97.09
2018-06-12T06:55:30.457Z,98.1
2018-06-12T06:56:30.456Z,95.4
2018-06-12T06:57:30.201Z,95.11
2018-06-12T06:58:30.474Z,94.34
2018-06-12T06:59:30.490Z,93.47
2018-06-12T07:00:30.489Z,93.76
2018-06-12T07:01:30.216Z,94.2
2018-06-12T07:02:30.481Z,93.52
2018-06-12T07:03:30.257Z,91.59
2018-06-12T07:04:30.485Z,91.39
2018-06-12T07:05:30.498Z,91.3
2018-06-12T07:06:30.500Z,90.72
2018-06-12T07:07:30.502Z,90.81
2018-06-12T07:08:30.522Z,90.91
2018-06-12T07:09:30.518Z,91.2
2018-06-12T07:10:30.520Z,91.49
2018-06-12T07:11:30.558Z,92.07
2018-06-12T07:12:30.517Z,89.85
2018-06-12T07:13:30.533Z,89.17
2018-06-12T07:14:31.570Z,90.72
2018-06-12T07:15:30.268Z,89.65
2018-06-12T07:16:30.558Z,89.56
2018-06-12T07:17:30.533Z,90.05
2018-06-12T07:18:30.537Z,89.85
2018-06-12T07:19:30.277Z,91.01
2018-06-12T07:20:30.536Z,89.75
2018-06-12T07:21:30.544Z,90.62
2018-06-12T07:22:30.551Z,88.89
2018-06-12T07:23:30.294Z,87.63
2018-06-12T07:24:30.553Z,88.11
2018-06-12T07:25:30.564Z,88.89
2018-06-12T07:26:30.568Z,89.75
2018-06-12T07:27:30.566Z,89.51
2018-06-12T07:28:30.325Z,88.79
2018-06-12T07:29:30.313Z,89.03
2018-06-12T07:30:30.578Z,88.21
2018-06-12T07:31:30.319Z,87.88
2018-06-12T07:32:30.598Z,87.34
2018-06-12T07:33:30.625Z,87.92
2018-06-12T07:34:30.593Z,88.4
2018-06-12T07:35:30.614Z,90.72
2018-06-12T07:36:30.601Z,87.73
2018-06-12T07:37:30.648Z,87.15
2018-06-12T07:38:30.352Z,86.18
2018-06-12T07:39:30.353Z,86.32
2018-06-12T07:40:30.620Z,86.42
2018-06-12T07:41:30.678Z,86.9
2018-06-12T07:42:30.626Z,86.9
2018-06-12T07:43:30.699Z,85.64
2018-06-12T07:44:31.703Z,85.36
2018-06-12T07:45:30.640Z,85.45
2018-06-12T07:46:30.381Z,85.49
2018-06-12T07:47:30.650Z,84.33
2018-06-12T07:48:30.402Z,84.43
2018-06-12T07:49:30.658Z,82.35
2018-06-12T07:50:30.408Z,80.12
2018-06-12T07:51:30.667Z,80.22
2018-06-12T07:52:30.417Z,80.07
2018-06-12T07:53:30.677Z,79.49
2018-06-12T07:54:30.421Z,79.14
2018-06-12T07:55:30.427Z,79
2018-06-12T07:56:30.474Z,79.39
2018-06-12T07:57:30.429Z,80.55
2018-06-12T07:58:30.687Z,80.84
2018-06-12T07:59:30.435Z,80.46
2018-06-12T08:00:30.720Z,80.46
2018-06-12T08:01:30.701Z,80.94
2018-06-12T08:02:30.710Z,79.97
2018-06-12T08:03:30.722Z,80.16
2018-06-12T08:04:30.711Z,80.71
2018-06-12T08:05:30.726Z,81.29
2018-06-12T08:06:30.728Z,81.77
2018-06-12T08:07:30.733Z,82.45
2018-06-12T08:08:30.740Z,83.47
2018-06-12T08:09:30.738Z,83.51
2018-06-12T08:10:30.740Z,83.27
2018-06-12T08:11:30.747Z,83.47
2018-06-12T08:12:30.494Z,84.33
2018-06-12T08:13:30.777Z,84.63
2018-06-12T08:14:30.500Z,83.47
2018-06-12T08:15:30.507Z,83.42
2018-06-12T08:16:30.520Z,84.78
2018-06-12T08:17:30.779Z,85.06
2018-06-12T08:18:30.844Z,86.52
2018-06-12T08:19:30.526Z,87.19
2018-06-12T08:20:30.530Z,87.48
2018-06-12T08:21:30.786Z,87.09
2018-06-12T08:22:30.797Z,87.67
2018-06-12T08:23:30.807Z,87.67
2018-06-12T08:24:30.546Z,88.25
2018-06-12T08:25:30.568Z,88.15
2018-06-12T08:26:30.889Z,87.87
2018-06-12T08:27:30.815Z,88.35
2018-06-12T08:28:30.566Z,88.73
2018-06-12T08:29:30.825Z,88.15
2018-06-12T08:30:30.650Z,87.67
2018-06-12T08:31:30.848Z,87.38
2018-06-12T08:32:30.830Z,87.58
2018-06-12T08:33:30.859Z,88.06
2018-06-12T08:34:30.838Z,87.77
2018-06-12T08:35:30.925Z,88.25
2018-06-12T08:36:30.847Z,87.09
2018-06-12T08:37:30.849Z,87.58
2018-06-12T08:38:30.863Z,87.09
2018-06-12T08:39:30.850Z,87.48
2018-06-12T08:40:30.599Z,86.22
2018-06-12T08:41:30.893Z,86.8
2018-06-12T08:42:30.621Z,87.77
2018-06-12T08:43:30.913Z,88.83
2018-06-12T08:44:30.882Z,88.59
2018-06-12T08:45:30.892Z,88.15
2018-06-12T08:46:31.005Z,88.25
2018-06-12T08:47:30.898Z,87.48
2018-06-12T08:48:30.653Z,87.09
2018-06-12T08:49:30.891Z,87.38
2018-06-12T08:50:30.645Z,87.48
2018-06-12T08:51:30.899Z,87.38
2018-06-12T08:52:30.647Z,87.38
2018-06-12T08:53:30.920Z,88.83
2018-06-12T08:54:30.654Z,87.77
2018-06-12T08:55:30.914Z,87.58
2018-06-12T08:56:30.700Z,88.25
2018-06-12T08:57:30.677Z,90.37
2018-06-12T08:58:30.684Z,90.28
2018-06-12T08:59:30.931Z,89.51
2018-06-12T09:00:30.931Z,89.56
2018-06-12T09:01:30.978Z,90.37
2018-06-12T09:02:30.727Z,90.53
2018-06-12T09:03:31.023Z,89.22
2018-06-12T09:04:30.946Z,89.99
2018-06-12T09:05:30.961Z,89.31
2018-06-12T09:06:30.956Z,90.23
2018-06-12T09:07:30.964Z,90.47
2018-06-12T09:08:30.973Z,90.37
2018-06-12T09:09:30.722Z,88.93
2018-06-12T09:10:30.716Z,88.64
2018-06-12T09:11:30.979Z,88.15
2018-06-12T09:12:30.979Z,88.35
2018-06-12T09:13:30.981Z,87.29
2018-06-12T09:14:30.979Z,87.96
2018-06-12T09:15:32.060Z,87.38
2018-06-12T09:16:31.011Z,87.58
2018-06-12T09:17:31.000Z,87.91
2018-06-12T09:18:30.750Z,87.62
2018-06-12T09:19:31.055Z,85.3
2018-06-12T09:20:31.001Z,85.01
2018-06-12T09:21:30.757Z,85.4
2018-06-12T09:22:31.015Z,84.63
2018-06-12T09:23:31.039Z,85.11
2018-06-12T09:24:31.021Z,84.57
2018-06-12T09:25:30.772Z,83.61
2018-06-12T09:26:30.796Z,84.09
2018-06-12T09:27:31.042Z,82.93
2018-06-12T09:28:31.056Z,82.15
2018-06-12T09:29:31.040Z,81.96
2018-06-12T09:30:31.044Z,82.54
2018-06-12T09:31:31.116Z,80.94
2018-06-12T09:32:31.050Z,81.81
2018-06-12T09:33:31.073Z,81.23
2018-06-12T09:34:30.809Z,80.94
2018-06-12T09:35:31.101Z,79.72
2018-06-12T09:36:31.064Z,78.11
2018-06-12T09:37:31.066Z,77.82
2018-06-12T09:38:31.075Z,76.76
2018-06-12T09:39:30.824Z,75.83
2018-06-12T09:40:31.174Z,75.83
2018-06-12T09:41:30.837Z,75.87
2018-06-12T09:42:31.096Z,74.6
2018-06-12T09:43:31.099Z,74.32
2018-06-12T09:44:31.116Z,74.32
2018-06-12T09:45:31.118Z,73.93
2018-06-12T09:46:30.853Z,74.12
2018-06-12T09:47:30.893Z,73.35
2018-06-12T09:48:31.125Z,73.64
2018-06-12T09:49:30.874Z,72.57
2018-06-12T09:50:31.139Z,72.38
2018-06-12T09:51:31.143Z,71.99
2018-06-12T09:52:30.884Z,72.28
2018-06-12T09:53:31.163Z,71.89
2018-06-12T09:54:31.162Z,71.8
2018-06-12T09:55:30.897Z,71.31
2018-06-12T09:56:31.172Z,71.7
2018-06-12T09:57:31.175Z,71.8
2018-06-12T09:58:30.922Z,71.6
2018-06-12T09:59:31.190Z,70.63
2018-06-12T10:00:31.213Z,71.41
2018-06-12T10:01:31.007Z,71.22
2018-06-12T10:02:31.211Z,71.7
2018-06-12T10:03:31.207Z,72.73
2018-06-12T10:04:30.950Z,73.08
2018-06-12T10:05:31.223Z,73.41
2018-06-12T10:06:31.227Z,73.31
2018-06-12T10:07:31.225Z,73.41
2018-06-12T10:08:30.970Z,74.18
2018-06-12T10:09:31.231Z,73.25
2018-06-12T10:10:31.248Z,72.28
2018-06-12T10:11:31.245Z,71.64
2018-06-12T10:12:30.986Z,70.61
2018-06-12T10:13:31.262Z,70.99
2018-06-12T10:14:31.274Z,69.28
2018-06-12T10:15:32.342Z,68.7
2018-06-12T10:16:31.307Z,67.83
2018-06-12T10:17:31.273Z,68.02
2018-06-12T10:18:31.275Z,67.92
2018-06-12T10:19:31.029Z,66.86
2018-06-12T10:20:31.047Z,66.99
2018-06-12T10:21:31.101Z,65.33
2018-06-12T10:22:31.047Z,64.95
2018-06-12T10:53:34.938Z,59.95
2018-06-12T10:54:34.930Z,61.8
2018-06-12T10:55:34.954Z,62.16
2018-06-12T10:56:35.055Z,61.19
2018-06-12T10:57:34.735Z,63.04
2018-06-12T10:58:34.967Z,62.16
2018-06-12T10:59:34.961Z,61.87
2018-06-12T11:00:34.964Z,60.31
2018-06-12T11:01:34.969Z,60.15
2018-06-12T11:02:34.968Z,60.15
2018-06-12T11:03:34.720Z,59.08
2018-06-12T11:04:34.982Z,58.33
2018-06-12T11:05:34.709Z,58.14
2018-06-12T11:06:34.997Z,58.04
2018-06-12T11:07:35.015Z,57.95
2018-06-12T11:08:34.784Z,58.23
2018-06-12T11:09:34.737Z,59.01
2018-06-12T11:10:34.754Z,58.72
2018-06-12T11:11:35.017Z,58.72
2018-06-12T11:12:34.765Z,58.62
2018-06-12T11:13:35.086Z,58.92
2018-06-12T11:14:34.776Z,59.79
2018-06-12T11:15:34.782Z,60.86
2018-06-12T11:16:35.143Z,59.95
2018-06-12T11:17:34.794Z,59.41
2018-06-12T11:18:35.050Z,58.14
2018-06-12T11:19:35.077Z,58.72
2018-06-12T11:20:34.818Z,60.61
2018-06-12T11:21:35.089Z,61
2018-06-12T11:22:35.115Z,61.65
2018-06-12T11:23:35.617Z,62.49
2018-06-12T11:24:35.109Z,63.04
2018-06-12T11:25:35.109Z,63.13
2018-06-12T11:26:35.246Z,64.47
2018-06-12T11:27:35.116Z,67.37
2018-06-12T11:28:35.117Z,69.41
2018-06-12T11:29:34.857Z,70.92
2018-06-12T11:30:34.875Z,72.73
2018-06-12T11:31:34.873Z,72.83
2018-06-12T11:32:34.876Z,74.34
2018-06-12T11:33:34.906Z,75.46
2018-06-12T11:34:35.168Z,76.2
2018-06-12T11:35:35.194Z,78.09
2018-06-12T11:36:35.166Z,79.5
2018-06-12T11:37:34.916Z,80.86
2018-06-12T11:38:35.162Z,82.94
2018-06-12T11:39:35.175Z,83.87
2018-06-12T11:40:35.164Z,85.99
2018-06-12T11:41:35.178Z,88.93
2018-06-12T11:42:35.217Z,91.93
2018-06-12T11:43:34.933Z,94.63
2018-06-12T11:44:34.928Z,98
2018-06-12T11:45:35.254Z,99.99
2018-06-12T11:46:35.217Z,99.99
2018-06-12T11:47:35.199Z,99.99
2018-06-12T11:48:35.219Z,99.99
2018-06-12T11:49:35.209Z,99.99
2018-06-12T11:50:34.959Z,99.99
2018-06-12T11:51:34.967Z,99.99
2018-06-12T11:52:35.240Z,99.99
2018-06-12T11:53:34.976Z,99.99
2018-06-12T11:54:35.250Z,99.99
2018-06-12T11:55:35.228Z,99.99
2018-06-12T11:56:35.233Z,99.99
2018-06-12T11:57:34.992Z,99.99
2018-06-12T11:58:35.232Z,99.99
2018-06-12T11:59:34.977Z,99.99
2018-06-12T12:00:35.251Z,99.99
2018-06-12T12:01:35.242Z,99.99
2018-06-12T12:02:35.234Z,99.99
2018-06-12T12:03:34.981Z,99.99
2018-06-12T12:04:35.262Z,99.99
2018-06-12T12:05:35.227Z,99.99
2018-06-12T12:06:34.992Z,99.99
2018-06-12T12:07:35.002Z,99.99
2018-06-12T12:08:34.993Z,99.99
2018-06-12T12:09:34.984Z,99.99
2018-06-12T12:10:34.984Z,99.99
2018-06-12T12:11:35.265Z,99.99
2018-06-12T12:12:34.998Z,99.99
2018-06-12T12:13:35.257Z,99.99
2018-06-12T12:14:35.251Z,99.99
2018-06-12T12:15:35.009Z,99.99
2018-06-12T12:16:34.994Z,99.99
2018-06-12T12:17:35.014Z,99.99
2018-06-12T12:18:35.247Z,99.99
2018-06-12T12:19:35.249Z,99.99
2018-06-12T12:20:35.264Z,99.99
2018-06-12T12:21:35.018Z,99.99
2018-06-12T12:22:35.014Z,99.99
2018-06-12T12:23:35.270Z,99.99
2018-06-12T12:24:35.256Z,99.99
2018-06-12T12:25:35.004Z,99.99
2018-06-12T12:26:35.266Z,99.99
2018-06-12T12:27:35.278Z,99.99
2018-06-12T12:28:35.293Z,99.99
2018-06-12T12:29:35.281Z,99.99
2018-06-12T12:30:35.271Z,99.99
2018-06-12T12:31:35.261Z,99.99
2018-06-12T12:32:35.281Z,99.99
2018-06-12T12:33:35.293Z,99.99
2018-06-12T12:34:35.269Z,99.99
2018-06-12T12:35:35.026Z,99.99
2018-06-12T12:36:35.272Z,99.99
2018-06-12T12:37:35.025Z,99.99
2018-06-12T12:38:35.283Z,99.99
2018-06-12T12:39:35.034Z,99.99
2018-06-12T12:40:35.278Z,99.99
2018-06-12T12:41:35.335Z,99.99
2018-06-12T12:42:35.034Z,99.99
2018-06-12T12:43:35.347Z,99.99
2018-06-12T12:44:35.038Z,99.99
2018-06-12T12:45:35.048Z,99.99
2018-06-12T12:46:35.290Z,99.99
2018-06-12T12:47:35.040Z,99.99
2018-06-12T12:48:35.065Z,99.99
2018-06-12T12:49:35.311Z,99.99
2018-06-12T12:50:35.316Z,99.99
2018-06-12T12:51:35.289Z,99.99
2018-06-12T12:52:35.044Z,99.99
2018-06-12T12:53:35.290Z,99.99
2018-06-12T12:54:35.044Z,99.99
2018-06-12T12:55:35.052Z,99.99
2018-06-12T12:56:35.302Z,99.99
2018-06-12T12:57:35.310Z,99.99
2018-06-12T12:58:35.054Z,99.99
2018-06-12T12:59:35.303Z,99.99
2018-06-12T13:00:35.313Z,99.99
2018-06-12T13:01:35.307Z,99.99
2018-06-12T13:02:35.309Z,99.99
2018-06-12T13:03:35.306Z,99.99
2018-06-12T13:04:35.079Z,99.99
2018-06-12T13:05:35.325Z,99.99
2018-06-12T13:06:35.327Z,99.99
2018-06-12T13:07:35.308Z,99.99
2018-06-12T13:08:35.071Z,99.99
2018-06-12T13:09:35.315Z,99.99
2018-06-12T13:10:35.330Z,99.99
2018-06-12T13:11:35.316Z,99.99
2018-06-12T13:12:35.068Z,99.99
2018-06-12T13:13:35.077Z,99.99
2018-06-12T13:14:35.073Z,99.99
2018-06-12T13:15:35.331Z,99.99
2018-06-12T13:16:35.353Z,99.99
2018-06-12T13:17:35.324Z,99.99
2018-06-12T13:18:35.112Z,99.99
2018-06-12T13:19:35.365Z,99.99
2018-06-12T13:20:35.328Z,99.99
2018-06-12T13:21:35.348Z,99.99
2018-06-12T13:22:35.093Z,99.99
2018-06-12T13:23:35.098Z,99.99
2018-06-12T13:24:35.104Z,99.99